Rickmers New Orleans — V7FF2 — position and weather

sailwx.info

Track history (hours):
 
Tides and Currents Weather Stations Pressure Air Temp Water Temp Dewpoint Dewpoint Depression Visibility Wind Speed Wind Dir Waves Ship Positions

Rickmers New Orleans

Last reported at 2016-Feb-06 23:25 UTC. Time now 2016-Feb-07 05:55 UTC.
Position N 54°28' E 000°56'.

Length 192.9 m; beam 27.8 m; draft 11.2 m.

Type: Ship. MMSI: 538001922.

Date/timePositionNaut miles runAvg speedWind from/ knotsBaromVisibWave heightAir tempDewpointWater temp
2016-Feb-06 23:25N 54°28' E 000°56'1011.8
2016-Feb-06 22:34N 54°34' E 000°42'1313.1
2016-Feb-06 21:34N 54°37' E 000°20'1413.7
2016-Feb-06 20:34N 54°38' W 000°03'1413.9
2016-Feb-06 19:33N 54°39' W 000°28'1413.7
2016-Feb-06 18:33N 54°40' W 000°52'1010.5
2016-Feb-06 17:33N 54°38' W 001°09'2 1.4
2016-Feb-06 16:11N 54°36' W 001°09'0 0.0
2016-Feb-06 15:32N 54°36' W 001°09'0 0.0
2016-Feb-06 14:32N 54°36' W 001°09'0 0.0
2016-Feb-06 13:32N 54°36' W 001°09'0 0.0
2016-Feb-06 12:32N 54°36' W 001°09'0 0.0
2016-Feb-06 10:20N 54°36' W 001°09'0 0.0
2016-Feb-06 09:23N 54°36' W 001°09'0 0.0
2016-Feb-06 08:23N 54°36' W 001°09'0 0.0
2016-Feb-06 07:23N 54°36' W 001°09'0 0.0
2016-Feb-06 05:08N 54°36' W 001°09'0 0.0
2016-Feb-06 04:26N 54°36' W 001°09'0 0.0
2016-Feb-06 02:14N 54°36' W 001°09'0 0.0
2016-Feb-06 01:32N 54°36' W 001°09'0 0.0
2016-Feb-06 00:32N 54°36' W 001°09'0 0.0
2016-Feb-05 23:29N 54°36' W 001°09'0 0.0
2016-Feb-05 22:32N 54°36' W 001°09'0 0.0
2016-Feb-05 21:32N 54°36' W 001°09'0 0.0
2016-Feb-05 20:32N 54°36' W 001°09'0 0.0
2016-Feb-05 17:05N 54°36' W 001°09'0 0.0
2016-Feb-05 16:26N 54°36' W 001°09'0 0.0
2016-Feb-05 15:23N 54°36' W 001°09'0 0.0
2016-Feb-05 14:26N 54°36' W 001°09'0 0.0
2016-Feb-05 12:29N 54°36' W 001°09'0 0.0
2016-Feb-05 11:32N 54°36' W 001°09'0 0.0
2016-Feb-05 10:32N 54°36' W 001°09'0 0.0
2016-Feb-05 09:32N 54°36' W 001°09'0 0.0
2016-Feb-05 08:32N 54°36' W 001°09'0 0.0
2016-Feb-05 07:32N 54°36' W 001°09'0 0.0
2016-Feb-05 06:32N 54°36' W 001°09'0 0.0
2016-Feb-05 05:23N 54°36' W 001°09'0 0.0
2016-Feb-05 04:23N 54°36' W 001°09'0 0.0
2016-Feb-05 03:26N 54°36' W 001°09'0 0.0
2016-Feb-05 02:23N 54°36' W 001°09'2 2.3
2016-Feb-05 01:33N 54°38' W 001°09'8 8.1
2016-Feb-05 00:33N 54°40' W 000°56'1212.1
2016-Feb-04 23:33N 54°40' W 000°35'1615.7
2016-Feb-04 22:33N 54°39' W 000°08'1615.8
2016-Feb-04 21:33N 54°38' E 000°19'19213.7
2016-Feb-04 07:33N 51°42' E 002°28'1616.3
2016-Feb-04 06:33N 51°29' E 002°12'1615.9
2016-Feb-04 05:33N 51°14' E 002°04'1515.4
2016-Feb-04 04:34N 51°04' E 001°45'1616.0
2016-Feb-04 03:34N 50°53' E 001°27'10714.5
2016-Feb-03 20:09N 49°43' W 000°41'915.0
2016-Feb-03 19:34N 49°37' W 000°32'1414.3
2016-Feb-03 18:33N 49°33' W 000°11'1211.8
2016-Feb-03 17:34N 49°29' E 000°06'3 2.7
2016-Feb-03 16:34N 49°29' E 000°10'0 0.4
2016-Feb-03 15:32N 49°29' E 000°11'0 0.0
2016-Feb-03 14:32N 49°29' E 000°11'0 0.0
2016-Feb-03 13:32N 49°29' E 000°11'0 0.0
2016-Feb-03 12:32N 49°29' E 000°11'0 0.0
2016-Feb-03 11:32N 49°29' E 000°11'0 0.0
2016-Feb-03 10:32N 49°29' E 000°11'0 0.0
2016-Feb-03 09:32N 49°29' E 000°11'0 0.0
2016-Feb-03 08:32N 49°29' E 000°11'0 0.0
2016-Feb-03 07:32N 49°29' E 000°11'0 0.0
2016-Feb-03 06:32N 49°29' E 000°11'0 0.0
2016-Feb-03 05:32N 49°29' E 000°11'0 0.0
2016-Feb-03 04:32N 49°29' E 000°11'0 0.0
2016-Feb-03 03:32N 49°29' E 000°11'0 0.0
2016-Feb-03 02:32N 49°29' E 000°11'0 0.0
2016-Feb-03 01:32N 49°29' E 000°11'0 0.0
2016-Feb-03 00:32N 49°29' E 000°11'0 0.0
2016-Feb-02 23:32N 49°29' E 000°11'0 0.0
2016-Feb-02 22:32N 49°29' E 000°11'0 0.0
2016-Feb-02 21:32N 49°29' E 000°11'0 0.0
2016-Feb-02 20:32N 49°29' E 000°11'0 0.0
2016-Feb-02 19:32N 49°29' E 000°11'0 0.0
2016-Feb-02 18:29N 49°29' E 000°11'0 0.0
2016-Feb-02 17:32N 49°29' E 000°11'0 0.0
2016-Feb-02 16:32N 49°29' E 000°11'0 0.0
2016-Feb-02 15:32N 49°29' E 000°11'0 0.0
2016-Feb-02 14:32N 49°29' E 000°11'0 0.0
2016-Feb-02 13:32N 49°29' E 000°11'0 0.0
2016-Feb-02 12:32N 49°29' E 000°11'0 0.0
2016-Feb-02 11:32N 49°29' E 000°11'0 0.0
2016-Feb-02 10:32N 49°29' E 000°11'0 0.0
2016-Feb-02 09:32N 49°29' E 000°11'0 0.0
2016-Feb-02 08:32N 49°29' E 000°11'0 0.0
2016-Feb-02 07:32N 49°29' E 000°11'0 0.0
2016-Feb-02 06:32N 49°29' E 000°11'0 0.0
2016-Feb-02 05:32N 49°29' E 000°11'0 0.0
2016-Feb-02 04:32N 49°29' E 000°11'0 0.0
2016-Feb-02 03:34N 49°29' E 000°11'1 0.7
2016-Feb-02 02:34N 49°28' E 000°10'1010.0
2016-Feb-02 01:33N 49°31' W 000°05'16 7.8
2016-Feb-01 23:29N 49°36' W 000°29'1 0.8
2016-Feb-01 22:33N 49°35' W 000°28'16614.6
2016-Feb-01 11:09N 49°08' W 004°40'1217.8
2016-Feb-01 10:30N 49°02' W 004°55'1717.9
2016-Feb-01 09:34N 48°54' W 005°17'3115.7
2016-Feb-01 07:33N 48°27' W 005°43'1514.5
2016-Feb-01 06:34N 48°13' W 005°38'1212.0
2016-Feb-01 05:33N 48°03' W 005°28'1212.2
2016-Feb-01 04:33N 47°55' W 005°14'1212.1
2016-Feb-01 03:34N 47°47' W 005°00'1211.9
2016-Feb-01 02:33N 47°41' W 004°46'1212.4
2016-Feb-01 01:33N 47°35' W 004°29'1212.4
2016-Feb-01 00:33N 47°30' W 004°12'1212.4
2016-Jan-31 23:33N 47°24' W 003°56'1212.1
2016-Jan-31 22:34N 47°19' W 003°40'1212.0
2016-Jan-31 21:33N 47°14' W 003°24'1212.2
2016-Jan-31 20:34N 47°09' W 003°08'1212.4
2016-Jan-31 19:33N 47°03' W 002°52'1211.7
2016-Jan-31 18:34N 47°02' W 002°35'1111.1
2016-Jan-31 17:34N 47°08' W 002°21'1110.8
2016-Jan-31 16:33N 47°17' W 002°11'1 1.3
2016-Jan-31 15:32N 47°18' W 002°09'0 0.0
2016-Jan-31 14:32N 47°18' W 002°10'0 0.0
2016-Jan-31 13:32N 47°18' W 002°09'0 0.0
2016-Jan-31 12:33N 47°18' W 002°10'6 5.8
2016-Jan-31 11:33N 47°14' W 002°16'1110.7
2016-Jan-31 10:34N 47°05' W 002°25'  
2016-Jan-28 17:30N 43°36' W 026°08'  
Track history (hours):
 
Tides and Currents Weather Stations Pressure Air Temp Water Temp Dewpoint Dewpoint Depression Visibility Wind Speed Wind Dir Waves Ship Positions

Rickmers New Orleans

Last reported at 2016-Feb-06 23:25 UTC. Time now 2016-Feb-07 05:55 UTC.
Position N 54°28' E 000°56'.

Length 192.9 m; beam 27.8 m; draft 11.2 m.

Type: Ship. MMSI: 538001922.

Date/timePositionNaut miles runAvg speedWind from/ knotsBaromVisibWave heightAir tempDewpointWater temp
2016-Feb-06 23:25N 54°28' E 000°56'1011.8
2016-Feb-06 22:34N 54°34' E 000°42'1313.1
2016-Feb-06 21:34N 54°37' E 000°20'1413.7
2016-Feb-06 20:34N 54°38' W 000°03'1413.9
2016-Feb-06 19:33N 54°39' W 000°28'1413.7
2016-Feb-06 18:33N 54°40' W 000°52'1010.5
2016-Feb-06 17:33N 54°38' W 001°09'2 1.4
2016-Feb-06 16:11N 54°36' W 001°09'0 0.0
2016-Feb-06 15:32N 54°36' W 001°09'0 0.0
2016-Feb-06 14:32N 54°36' W 001°09'0 0.0
2016-Feb-06 13:32N 54°36' W 001°09'0 0.0
2016-Feb-06 12:32N 54°36' W 001°09'0 0.0
2016-Feb-06 10:20N 54°36' W 001°09'0 0.0
2016-Feb-06 09:23N 54°36' W 001°09'0 0.0
2016-Feb-06 08:23N 54°36' W 001°09'0 0.0
2016-Feb-06 07:23N 54°36' W 001°09'0 0.0
2016-Feb-06 05:08N 54°36' W 001°09'0 0.0
2016-Feb-06 04:26N 54°36' W 001°09'0 0.0
2016-Feb-06 02:14N 54°36' W 001°09'0 0.0
2016-Feb-06 01:32N 54°36' W 001°09'0 0.0
2016-Feb-06 00:32N 54°36' W 001°09'0 0.0
2016-Feb-05 23:29N 54°36' W 001°09'0 0.0
2016-Feb-05 22:32N 54°36' W 001°09'0 0.0
2016-Feb-05 21:32N 54°36' W 001°09'0 0.0
2016-Feb-05 20:32N 54°36' W 001°09'0 0.0
2016-Feb-05 17:05N 54°36' W 001°09'0 0.0
2016-Feb-05 16:26N 54°36' W 001°09'0 0.0
2016-Feb-05 15:23N 54°36' W 001°09'0 0.0
2016-Feb-05 14:26N 54°36' W 001°09'0 0.0
2016-Feb-05 12:29N 54°36' W 001°09'0 0.0
2016-Feb-05 11:32N 54°36' W 001°09'0 0.0
2016-Feb-05 10:32N 54°36' W 001°09'0 0.0
2016-Feb-05 09:32N 54°36' W 001°09'0 0.0
2016-Feb-05 08:32N 54°36' W 001°09'0 0.0
2016-Feb-05 07:32N 54°36' W 001°09'0 0.0
2016-Feb-05 06:32N 54°36' W 001°09'0 0.0
2016-Feb-05 05:23N 54°36' W 001°09'0 0.0
2016-Feb-05 04:23N 54°36' W 001°09'0 0.0
2016-Feb-05 03:26N 54°36' W 001°09'0 0.0
2016-Feb-05 02:23N 54°36' W 001°09'2 2.3
2016-Feb-05 01:33N 54°38' W 001°09'8 8.1
2016-Feb-05 00:33N 54°40' W 000°56'1212.1
2016-Feb-04 23:33N 54°40' W 000°35'1615.7
2016-Feb-04 22:33N 54°39' W 000°08'1615.8
2016-Feb-04 21:33N 54°38' E 000°19'19213.7
2016-Feb-04 07:33N 51°42' E 002°28'1616.3
2016-Feb-04 06:33N 51°29' E 002°12'1615.9
2016-Feb-04 05:33N 51°14' E 002°04'1515.4
2016-Feb-04 04:34N 51°04' E 001°45'1616.0
2016-Feb-04 03:34N 50°53' E 001°27'10714.5
2016-Feb-03 20:09N 49°43' W 000°41'915.0
2016-Feb-03 19:34N 49°37' W 000°32'1414.3
2016-Feb-03 18:33N 49°33' W 000°11'1211.8
2016-Feb-03 17:34N 49°29' E 000°06'3 2.7
2016-Feb-03 16:34N 49°29' E 000°10'0 0.4
2016-Feb-03 15:32N 49°29' E 000°11'0 0.0
2016-Feb-03 14:32N 49°29' E 000°11'0 0.0
2016-Feb-03 13:32N 49°29' E 000°11'0 0.0
2016-Feb-03 12:32N 49°29' E 000°11'0 0.0
2016-Feb-03 11:32N 49°29' E 000°11'0 0.0
2016-Feb-03 10:32N 49°29' E 000°11'0 0.0
2016-Feb-03 09:32N 49°29' E 000°11'0 0.0
2016-Feb-03 08:32N 49°29' E 000°11'0 0.0
2016-Feb-03 07:32N 49°29' E 000°11'0 0.0
2016-Feb-03 06:32N 49°29' E 000°11'0 0.0
2016-Feb-03 05:32N 49°29' E 000°11'0 0.0
2016-Feb-03 04:32N 49°29' E 000°11'0 0.0
2016-Feb-03 03:32N 49°29' E 000°11'0 0.0
2016-Feb-03 02:32N 49°29' E 000°11'0 0.0
2016-Feb-03 01:32N 49°29' E 000°11'0 0.0
2016-Feb-03 00:32N 49°29' E 000°11'0 0.0
2016-Feb-02 23:32N 49°29' E 000°11'0 0.0
2016-Feb-02 22:32N 49°29' E 000°11'0 0.0
2016-Feb-02 21:32N 49°29' E 000°11'0 0.0
2016-Feb-02 20:32N 49°29' E 000°11'0 0.0
2016-Feb-02 19:32N 49°29' E 000°11'0 0.0
2016-Feb-02 18:29N 49°29' E 000°11'0 0.0
2016-Feb-02 17:32N 49°29' E 000°11'0 0.0
2016-Feb-02 16:32N 49°29' E 000°11'0 0.0
2016-Feb-02 15:32N 49°29' E 000°11'0 0.0
2016-Feb-02 14:32N 49°29' E 000°11'0 0.0
2016-Feb-02 13:32N 49°29' E 000°11'0 0.0
2016-Feb-02 12:32N 49°29' E 000°11'0 0.0
2016-Feb-02 11:32N 49°29' E 000°11'0 0.0
2016-Feb-02 10:32N 49°29' E 000°11'0 0.0
2016-Feb-02 09:32N 49°29' E 000°11'0 0.0
2016-Feb-02 08:32N 49°29' E 000°11'0 0.0
2016-Feb-02 07:32N 49°29' E 000°11'0 0.0
2016-Feb-02 06:32N 49°29' E 000°11'0 0.0
2016-Feb-02 05:32N 49°29' E 000°11'0 0.0
2016-Feb-02 04:32N 49°29' E 000°11'0 0.0
2016-Feb-02 03:34N 49°29' E 000°11'1 0.7
2016-Feb-02 02:34N 49°28' E 000°10'1010.0
2016-Feb-02 01:33N 49°31' W 000°05'16 7.8
2016-Feb-01 23:29N 49°36' W 000°29'1 0.8
2016-Feb-01 22:33N 49°35' W 000°28'16614.6
2016-Feb-01 11:09N 49°08' W 004°40'1217.8
2016-Feb-01 10:30N 49°02' W 004°55'1717.9
2016-Feb-01 09:34N 48°54' W 005°17'3115.7
2016-Feb-01 07:33N 48°27' W 005°43'1514.5
2016-Feb-01 06:34N 48°13' W 005°38'1212.0
2016-Feb-01 05:33N 48°03' W 005°28'1212.2
2016-Feb-01 04:33N 47°55' W 005°14'1212.1
2016-Feb-01 03:34N 47°47' W 005°00'1211.9
2016-Feb-01 02:33N 47°41' W 004°46'1212.4
2016-Feb-01 01:33N 47°35' W 004°29'1212.4
2016-Feb-01 00:33N 47°30' W 004°12'1212.4
2016-Jan-31 23:33N 47°24' W 003°56'1212.1
2016-Jan-31 22:34N 47°19' W 003°40'1212.0
2016-Jan-31 21:33N 47°14' W 003°24'1212.2
2016-Jan-31 20:34N 47°09' W 003°08'1212.4
2016-Jan-31 19:33N 47°03' W 002°52'1211.7
2016-Jan-31 18:34N 47°02' W 002°35'1111.1
2016-Jan-31 17:34N 47°08' W 002°21'1110.8
2016-Jan-31 16:33N 47°17' W 002°11'1 1.3
2016-Jan-31 15:32N 47°18' W 002°09'0 0.0
2016-Jan-31 14:32N 47°18' W 002°10'0 0.0
2016-Jan-31 13:32N 47°18' W 002°09'0 0.0
2016-Jan-31 12:33N 47°18' W 002°10'6 5.8
2016-Jan-31 11:33N 47°14' W 002°16'1110.7
2016-Jan-31 10:34N 47°05' W 002°25'  
2016-Jan-28 17:30N 43°36' W 026°08'  

Dump ship's entire track history